Time;durP1;ratioP1;P1;durP2;ratioP2;P2;SDS_P1;SDS_P2;PMS_P1;PMS_P2;Temp;Humidity;BMP_temperature;BMP_pressure;BME280_temperature;BME280_humidity;BME280_pressure;Samples;Min_cycle;Max_cycle;Signal;HPM_P1;HPM_P2
2023/04/15 00:01:47;;;;;;;;;;;;;;;6.97;100.00;96741.63;18303471;32;19945;-57
2023/04/15 00:11:50;;;;;;;;;;;;;;;6.97;100.00;96738.94;18302733;32;19981;-56
2023/04/15 00:21:52;;;;;;;;;;;;;;;6.95;100.00;96743.78;18288250;32;19980;-57
2023/04/15 00:31:55;;;;;;;;;;;;;;;6.93;100.00;96737.84;18301108;32;20276;-57
2023/04/15 00:41:58;;;;;;;;;;;;;;;6.92;100.00;96730.84;18286395;32;19957;-57
2023/04/15 00:52:00;;;;;;;;;;;;;;;6.92;100.00;96730.84;18286687;32;19965;-57
2023/04/15 01:02:02;;;;;;;;;;;;;;;6.86;100.00;96721.19;18300004;32;19964;-57
2023/04/15 01:12:06;;;;;;;;;;;;;;;6.84;100.00;96716.09;18285498;32;19969;-57
2023/04/15 01:22:08;;;;;;;;;;;;;;;6.85;100.00;96716.91;18298858;32;19958;-57
2023/04/15 01:32:10;;;;;;;;;;;;;;;6.82;100.00;96720.12;18298412;32;19977;-57
2023/04/15 01:42:32;;;;;;;;;;;;;;;6.76;100.00;96714.75;18297656;32;19949;-57
2023/04/15 01:52:34;;;;;;;;;;;;;;;6.72;100.00;96712.88;18297533;32;19941;-57
2023/04/15 02:02:37;;;;;;;;;;;;;;;6.65;100.00;96709.66;18297105;32;19950;-57
2023/04/15 02:12:39;;;;;;;;;;;;;;;6.60;100.00;96702.38;18296648;32;20318;-57
2023/04/15 02:22:41;;;;;;;;;;;;;;;6.59;100.00;96700.78;18296123;32;19953;-57
2023/04/15 02:32:44;;;;;;;;;;;;;;;6.59;100.00;96696.22;18269452;32;19989;-55
2023/04/15 02:42:47;;;;;;;;;;;;;;;6.60;100.00;96689.78;18295310;32;19961;-57
2023/04/15 02:52:49;;;;;;;;;;;;;;;6.60;100.00;96694.31;18305754;32;19979;-57
2023/04/15 03:02:56;;;;;;;;;;;;;;;6.64;100.00;96692.72;18315514;32;19968;-56
2023/04/15 03:13:15;;;;;;;;;;;;;;;6.60;100.00;96688.97;18315390;32;19953;-56
2023/04/15 03:23:18;;;;;;;;;;;;;;;6.55;100.00;96688.94;18314718;32;19945;-56
2023/04/15 03:33:20;;;;;;;;;;;;;;;6.45;100.00;96679.00;18314639;32;20004;-56
2023/04/15 03:43:22;;;;;;;;;;;;;;;6.42;100.00;96685.72;18313612;32;19997;-57
2023/04/15 03:53:25;;;;;;;;;;;;;;;6.41;100.00;96683.31;18313571;32;19941;-57
2023/04/15 04:03:27;;;;;;;;;;;;;;;6.37;100.00;96674.16;18307648;32;19953;-57
2023/04/15 04:13:30;;;;;;;;;;;;;;;6.33;100.00;96697.25;18288906;32;19945;-56
2023/04/15 04:23:32;;;;;;;;;;;;;;;6.25;100.00;96694.03;18301883;32;19992;-57
2023/04/15 04:33:34;;;;;;;;;;;;;;;6.23;100.00;96698.06;18301537;32;19972;-57
2023/04/15 04:43:37;;;;;;;;;;;;;;;6.23;100.00;96692.69;18300701;32;19969;-57
2023/04/15 04:53:39;;;;;;;;;;;;;;;6.16;100.00;96698.31;18300449;32;19984;-57
2023/04/15 05:03:41;;;;;;;;;;;;;;;6.15;100.00;96712.78;18299935;32;19961;-57
2023/04/15 05:13:44;;;;;;;;;;;;;;;6.22;100.00;96723.28;18298929;32;19985;-57
2023/04/15 05:23:46;;;;;;;;;;;;;;;6.27;100.00;96720.59;18299083;32;19946;-57
2023/04/15 05:33:49;;;;;;;;;;;;;;;6.35;100.00;96722.78;18298735;32;20317;-57
2023/04/15 05:43:51;;;;;;;;;;;;;;;6.40;100.00;96733.53;18297645;32;20011;-57
2023/04/15 05:53:53;;;;;;;;;;;;;;;6.43;100.00;96735.66;18297431;32;19946;-57
2023/04/15 06:03:55;;;;;;;;;;;;;;;6.48;100.00;96742.12;18296803;32;20268;-57
2023/04/15 06:13:58;;;;;;;;;;;;;;;6.60;100.00;96750.72;18297134;32;19957;-57
2023/04/15 06:24:01;;;;;;;;;;;;;;;6.70;100.00;96749.94;18295503;32;19933;-57
2023/04/15 06:34:03;;;;;;;;;;;;;;;6.90;100.00;96747.25;18295766;32;20352;-57
2023/04/15 06:44:05;;;;;;;;;;;;;;;7.12;100.00;96746.97;18294932;32;19961;-57
2023/04/15 06:54:07;;;;;;;;;;;;;;;7.32;100.00;96749.91;18294823;32;19950;-57
2023/04/15 07:04:10;;;;;;;;;;;;;;;7.41;100.00;96756.34;18294329;32;20246;-57
2023/04/15 07:14:12;;;;;;;;;;;;;;;7.52;100.00;96746.37;18294072;32;19975;-57
2023/04/15 07:24:17;;;;;;;;;;;;;;;7.72;100.00;96743.62;18293734;32;19993;-57
2023/04/15 07:34:19;;;;;;;;;;;;;;;8.21;100.00;96738.56;18293911;32;19977;-57
2023/04/15 07:44:22;;;;;;;;;;;;;;;8.73;100.00;96742.59;18303614;32;19976;-57
2023/04/15 07:54:24;;;;;;;;;;;;;;;9.05;100.00;96752.06;18303250;32;19949;-57
2023/04/15 08:04:27;;;;;;;;;;;;;;;9.43;100.00;96757.66;18289338;32;19993;-57
2023/04/15 08:14:29;;;;;;;;;;;;;;;9.73;100.00;96761.13;18302593;32;20258;-57
2023/04/15 08:24:32;;;;;;;;;;;;;;;10.04;100.00;96768.87;18301582;32;19972;-57
2023/04/15 08:34:34;;;;;;;;;;;;;;;10.21;100.00;96760.28;18301499;32;19945;-57
2023/04/15 08:44:37;;;;;;;;;;;;;;;10.30;100.00;96768.56;18300746;32;20012;-57
2023/04/15 08:54:40;;;;;;;;;;;;;;;10.40;100.00;96779.28;18286347;32;19953;-57
2023/04/15 09:04:43;;;;;;;;;;;;;;;10.45;100.00;96792.69;18300003;32;19945;-57
2023/04/15 09:14:46;;;;;;;;;;;;;;;10.39;100.00;96799.28;18299575;32;20253;-57
2023/04/15 09:24:49;;;;;;;;;;;;;;;10.43;100.00;96807.59;18298858;32;19941;-57
2023/04/15 09:34:51;;;;;;;;;;;;;;;10.78;100.00;96810.91;18298536;32;20001;-57
2023/04/15 09:44:54;;;;;;;;;;;;;;;10.72;100.00;96828.31;18297421;32;19941;-57
2023/04/15 09:54:57;;;;;;;;;;;;;;;10.65;100.00;96840.28;18297411;32;19953;-57
2023/04/15 10:05:00;;;;;;;;;;;;;;;10.72;100.00;96839.94;18296400;32;19956;-57
2023/04/15 10:15:05;;;;;;;;;;;;;;;11.00;100.00;96857.12;18296697;32;19961;-57
2023/04/15 10:25:08;;;;;;;;;;;;;;;11.14;100.00;96867.19;18282623;32;19950;-57
2023/04/15 10:35:12;;;;;;;;;;;;;;;11.01;100.00;96879.56;18295913;32;20250;-57
2023/04/15 10:45:18;;;;;;;;;;;;;;;11.12;100.00;96894.53;18294864;32;20381;-57
2023/04/15 10:55:21;;;;;;;;;;;;;;;11.28;100.00;96899.75;18295078;32;19981;-57
2023/04/15 11:05:54;;;;;;;;;;;;;;;11.31;100.00;96920.81;18294331;32;20006;-57
2023/04/15 11:15:57;;;;;;;;;;;;;;;11.84;100.00;96925.94;18289335;32;19953;-57
2023/04/15 11:26:01;;;;;;;;;;;;;;;12.26;100.00;96945.00;18304996;32;19962;-57
2023/04/15 11:36:03;;;;;;;;;;;;;;;12.31;100.00;96957.69;18304257;32;20322;-57
2023/04/15 11:46:07;;;;;;;;;;;;;;;12.15;100.00;96959.84;18303716;32;19992;-57
2023/04/15 11:56:15;;;;;;;;;;;;;;;12.18;100.00;96970.91;18303952;32;20370;-57
2023/04/15 12:06:18;;;;;;;;;;;;;;;12.63;100.00;96969.56;18303031;32;19969;-57
2023/04/15 12:16:21;;;;;;;;;;;;;;;13.05;100.00;96992.88;18302465;32;19965;-57
2023/04/15 12:26:26;;;;;;;;;;;;;;;13.28;100.00;97005.72;18300838;32;20356;-57
2023/04/15 12:36:34;;;;;;;;;;;;;;;13.54;100.00;97039.41;18301402;32;20332;-57
2023/04/15 12:46:37;;;;;;;;;;;;;;;13.69;100.00;97048.31;18300756;32;19949;-57
2023/04/15 12:56:39;;;;;;;;;;;;;;;13.83;97.90;97065.41;18300693;32;19976;-57
2023/04/15 13:06:42;;;;;;;;;;;;;;;14.11;98.98;97081.59;18286521;32;19942;-57
2023/04/15 13:16:44;;;;;;;;;;;;;;;13.58;93.46;97095.81;18299515;32;20257;-57
2023/04/15 13:26:46;;;;;;;;;;;;;;;13.43;100.00;97107.81;18298748;32;19942;-57
2023/04/15 13:36:51;;;;;;;;;;;;;;;13.60;100.00;97120.78;18298353;32;19954;-57
2023/04/15 13:46:53;;;;;;;;;;;;;;;13.72;99.33;97140.09;18297938;32;19972;-57
2023/04/15 13:56:56;;;;;;;;;;;;;;;13.74;100.00;97154.16;18297462;32;20351;-57
2023/04/15 14:06:59;;;;;;;;;;;;;;;13.03;100.00;97168.78;18297014;32;20266;-57
2023/04/15 14:17:04;;;;;;;;;;;;;;;12.45;100.00;97172.69;18296095;32;19976;-57
2023/04/15 14:27:07;;;;;;;;;;;;;;;12.54;100.00;97173.66;18295788;32;20016;-57
2023/04/15 14:37:10;;;;;;;;;;;;;;;13.50;100.00;97187.78;18295522;32;19953;-57
2023/04/15 14:47:15;;;;;;;;;;;;;;;14.62;100.00;97188.44;18294746;32;20004;-57
2023/04/15 14:57:17;;;;;;;;;;;;;;;15.27;99.68;97201.84;18280876;32;19964;-57
2023/04/15 15:07:20;;;;;;;;;;;;;;;15.76;90.11;97213.63;18294331;32;19989;-57
2023/04/15 15:17:22;;;;;;;;;;;;;;;16.02;90.62;97232.00;18294039;32;19945;-57
2023/04/15 15:27:24;;;;;;;;;;;;;;;16.03;67.67;97239.88;18280369;32;19949;-57
2023/04/15 15:37:29;;;;;;;;;;;;;;;15.56;76.66;97245.72;18293272;32;19964;-57
2023/04/15 15:47:31;;;;;;;;;;;;;;;15.42;83.69;97250.47;18228601;32;19966;-57
2023/04/15 15:57:33;;;;;;;;;;;;;;;15.69;84.88;97265.03;18232288;32;19981;-57
2023/04/15 16:07:36;;;;;;;;;;;;;;;15.72;72.72;97280.78;18239404;32;19949;-57
2023/04/15 16:17:39;;;;;;;;;;;;;;;15.30;63.42;97291.91;18238293;32;20254;-57
2023/04/15 16:27:42;;;;;;;;;;;;;;;15.26;62.63;97304.53;18238709;32;19949;-57
2023/04/15 16:38:05;;;;;;;;;;;;;;;15.42;69.61;97324.84;18238421;32;19961;-57
2023/04/15 16:48:07;;;;;;;;;;;;;;;15.25;67.70;97336.41;18175140;32;19994;-57
2023/04/15 16:58:10;;;;;;;;;;;;;;;15.75;77.37;97351.00;18173614;32;19946;-57
2023/04/15 17:08:12;;;;;;;;;;;;;;;16.36;73.61;97362.25;18173759;32;20301;-57
2023/04/15 17:18:16;;;;;;;;;;;;;;;16.30;72.09;97379.06;18173705;32;19969;-57
2023/04/15 17:28:23;;;;;;;;;;;;;;;15.07;75.94;97384.50;18173317;32;20040;-58
2023/04/15 17:38:28;;;;;;;;;;;;;;;13.74;86.18;97371.53;18176186;32;19970;-57
2023/04/15 17:48:50;;;;;;;;;;;;;;;12.84;97.14;97382.34;18286327;32;19941;-57
2023/04/15 17:59:13;;;;;;;;;;;;;;;12.33;100.00;97414.44;18285762;32;19955;-57
2023/04/15 18:09:35;;;;;;;;;;;;;;;11.87;100.00;97423.78;18285321;32;20239;-57
2023/04/15 18:19:58;;;;;;;;;;;;;;;11.25;100.00;97438.84;18284161;32;20363;-57
2023/04/15 18:30:01;;;;;;;;;;;;;;;10.69;100.00;97454.28;18296047;32;20333;-57
2023/04/15 18:40:06;;;;;;;;;;;;;;;10.22;100.00;97456.25;18295438;32;20038;-57
2023/04/15 18:50:08;;;;;;;;;;;;;;;9.87;100.00;97473.28;18281413;32;20361;-57
2023/04/15 19:00:11;;;;;;;;;;;;;;;9.65;100.00;97487.88;18294826;32;19965;-57
2023/04/15 19:10:14;;;;;;;;;;;;;;;9.49;100.00;97506.72;18280956;32;20454;-57
2023/04/15 19:20:16;;;;;;;;;;;;;;;9.31;100.00;97521.53;18294195;32;19946;-57
2023/04/15 19:30:20;;;;;;;;;;;;;;;9.15;100.00;97536.03;18294126;32;19957;-57
2023/04/15 19:40:22;;;;;;;;;;;;;;;9.03;100.00;97549.75;18303993;32;19958;-57
2023/04/15 19:50:26;;;;;;;;;;;;;;;8.93;100.00;97563.19;18303900;32;19993;-57
2023/04/15 20:00:29;;;;;;;;;;;;;;;8.79;100.00;97579.03;18303497;32;20001;-57
2023/04/15 20:10:32;;;;;;;;;;;;;;;8.72;100.00;97598.13;18288963;32;19979;-57
2023/04/15 20:20:35;;;;;;;;;;;;;;;8.59;100.00;97590.47;18302938;32;19957;-57
2023/04/15 20:30:38;;;;;;;;;;;;;;;8.46;100.00;97580.97;18302011;32;19961;-57
2023/04/15 20:40:41;;;;;;;;;;;;;;;8.39;100.00;97591.91;18274766;32;20277;-57
2023/04/15 20:50:44;;;;;;;;;;;;;;;8.41;100.00;97597.84;18300670;32;20267;-57
2023/04/15 21:00:46;;;;;;;;;;;;;;;8.52;100.00;97606.06;18300592;32;19949;-57
2023/04/15 21:10:48;;;;;;;;;;;;;;;8.70;100.00;97629.94;18300046;32;19968;-57
2023/04/15 21:20:58;;;;;;;;;;;;;;;8.87;100.00;97635.16;18299441;32;19949;-57
2023/04/15 21:31:00;;;;;;;;;;;;;;;8.78;100.00;97645.63;18272428;32;19949;-57
2023/04/15 21:41:08;;;;;;;;;;;;;;;8.87;100.00;97664.00;18298138;32;20005;-57
2023/04/15 21:51:11;;;;;;;;;;;;;;;8.76;100.00;97684.69;18298204;32;19980;-57
2023/04/15 22:01:14;;;;;;;;;;;;;;;8.78;100.00;97687.91;18297442;32;20027;-57
2023/04/15 22:11:26;;;;;;;;;;;;;;;8.78;100.00;97713.03;18296973;32;20291;-57
2023/04/15 22:21:30;;;;;;;;;;;;;;;8.81;100.00;97717.88;18283178;32;19945;-57
2023/04/15 22:31:32;;;;;;;;;;;;;;;8.82;100.00;97730.31;18296111;32;19972;-57
2023/04/15 22:41:35;;;;;;;;;;;;;;;8.68;100.00;97745.25;18295190;32;20003;-57
2023/04/15 22:51:37;;;;;;;;;;;;;;;8.62;100.00;97755.19;18295344;32;19980;-57
2023/04/15 23:01:40;;;;;;;;;;;;;;;8.60;100.00;97769.97;18294791;32;19996;-57
2023/04/15 23:11:42;;;;;;;;;;;;;;;8.54;100.00;97771.00;18302429;32;19996;-57
2023/04/15 23:21:45;;;;;;;;;;;;;;;8.52;100.00;97784.72;18305253;32;20005;-57
2023/04/15 23:31:48;;;;;;;;;;;;;;;8.47;100.00;97796.28;18305328;32;19954;-57
2023/04/15 23:41:50;;;;;;;;;;;;;;;8.41;100.00;97810.72;18304217;32;19964;-57
2023/04/15 23:51:53;;;;;;;;;;;;;;;8.31;100.00;97808.72;18289950;32;20295;-57
